Time;durP1;ratioP1;P1;durP2;ratioP2;P2;SDS_P1;SDS_P2;PMS_P1;PMS_P2;Temp;Humidity;BMP_temperature;BMP_pressure;BME280_temperature;BME280_humidity;BME280_pressure;Samples;Min_cycle;Max_cycle;Signal;HPM_P1;HPM_P2
2021/12/06 00:00:11;;;;;;;34.10;26.13;;;2.40;99.90;;;;;;5095487;28;20040;-61
2021/12/06 00:02:37;;;;;;;34.42;26.85;;;2.40;99.90;;;;;;5100311;27;20047;-61
2021/12/06 00:05:03;;;;;;;36.47;26.67;;;2.40;99.90;;;;;;5099782;27;20040;-61
2021/12/06 00:07:28;;;;;;;33.92;26.02;;;2.40;99.90;;;;;;5099148;28;20043;-61
2021/12/06 00:09:54;;;;;;;37.53;27.30;;;2.40;99.90;;;;;;5098120;28;20035;-61
2021/12/06 00:12:20;;;;;;;39.45;27.27;;;2.30;99.90;;;;;;5098790;27;20035;-61
2021/12/06 00:14:46;;;;;;;40.22;27.42;;;2.30;99.90;;;;;;5099663;28;20058;-61
2021/12/06 00:17:14;;;;;;;38.38;27.40;;;2.40;99.90;;;;;;5100381;27;20047;-61
2021/12/06 00:19:41;;;;;;;36.20;26.55;;;2.40;99.90;;;;;;5101791;28;20532;-61
2021/12/06 00:22:11;;;;;;;39.35;28.50;;;2.40;99.90;;;;;;5097105;27;20241;-61
2021/12/06 00:24:37;;;;;;;42.95;28.60;;;2.30;99.90;;;;;;5098791;28;20042;-61
2021/12/06 00:27:04;;;;;;;38.97;26.88;;;2.40;99.90;;;;;;5100051;28;20039;-61
2021/12/06 00:29:30;;;;;;;41.75;27.75;;;2.40;99.90;;;;;;5099291;28;20055;-61
2021/12/06 00:31:56;;;;;;;39.15;26.90;;;2.30;99.90;;;;;;5099632;28;20393;-61
2021/12/06 00:34:24;;;;;;;40.88;25.88;;;2.30;99.90;;;;;;5099213;27;20040;-61
2021/12/06 00:37:04;;;;;;;38.97;26.73;;;2.40;99.90;;;;;;5099063;28;20047;-61
2021/12/06 00:39:31;;;;;;;42.58;26.77;;;2.30;99.90;;;;;;5098046;28;20039;-61
2021/12/06 00:41:57;;;;;;;46.38;28.40;;;2.40;99.90;;;;;;5097948;28;20393;-61
2021/12/06 00:44:22;;;;;;;38.00;25.27;;;2.40;99.90;;;;;;5086243;28;20036;-61
2021/12/06 00:46:48;;;;;;;46.30;27.00;;;2.40;99.90;;;;;;5099393;28;20436;-61
2021/12/06 00:49:14;;;;;;;40.25;25.95;;;2.60;99.90;;;;;;5098627;28;20039;-61
2021/12/06 00:51:40;;;;;;;45.35;26.80;;;2.40;99.90;;;;;;5098223;28;20062;-61
2021/12/06 00:54:07;;;;;;;43.58;25.88;;;2.40;99.90;;;;;;5095562;28;20044;-61
2021/12/06 00:56:33;;;;;;;46.25;27.75;;;2.40;99.90;;;;;;5095722;28;20051;-62
2021/12/06 00:58:58;;;;;;;46.80;29.98;;;2.40;99.90;;;;;;5099558;28;20514;-61
2021/12/06 01:01:24;;;;;;;44.65;28.85;;;2.40;99.90;;;;;;5097482;28;20032;-61
2021/12/06 01:03:50;;;;;;;45.65;28.05;;;2.40;99.90;;;;;;5099003;27;20036;-61
2021/12/06 01:06:16;;;;;;;50.97;31.00;;;2.40;99.90;;;;;;5113348;27;20057;-61
2021/12/06 01:08:41;;;;;;;46.20;28.52;;;2.40;99.90;;;;;;5099529;28;20035;-61
2021/12/06 01:11:09;;;;;;;47.60;29.77;;;2.40;99.90;;;;;;5096703;28;20051;-61
2021/12/06 01:13:36;;;;;;;46.53;29.95;;;2.40;99.90;;;;;;5096855;27;20040;-61
2021/12/06 01:16:02;;;;;;;49.78;30.55;;;2.40;99.90;;;;;;5099418;28;20036;-61
2021/12/06 01:18:28;;;;;;;45.85;29.40;;;2.40;99.90;;;;;;5098997;28;21162;-61
2021/12/06 01:21:08;;;;;;;47.65;29.80;;;2.30;99.90;;;;;;5131962;27;20024;-61
2021/12/06 01:23:50;;;;;;;47.03;30.08;;;2.40;99.90;;;;;;5096448;28;20180;-61
2021/12/06 01:26:36;;;;;;;52.17;31.38;;;2.40;99.90;;;;;;5095937;28;20169;-61
2021/12/06 01:29:36;;;;;;;51.92;30.00;;;2.40;99.90;;;;;;5129358;27;20048;-62
2021/12/06 01:39:51;;;;;;;55.17;32.25;;;2.30;99.90;;;;;;5100717;27;20036;-61
2021/12/06 01:42:17;;;;;;;50.05;30.63;;;2.30;99.90;;;;;;5099767;28;20044;-61
2021/12/06 01:44:47;;;;;;;54.22;31.10;;;2.30;99.90;;;;;;5102011;28;20051;-61
2021/12/06 01:47:17;;;;;;;46.47;29.73;;;2.40;99.90;;;;;;5099687;27;20501;-61
2021/12/06 01:49:49;;;;;;;53.45;30.83;;;2.40;99.90;;;;;;5101113;27;20035;-61
2021/12/06 01:52:19;;;;;;;53.78;30.70;;;2.40;99.90;;;;;;5103184;28;20151;-61
2021/12/06 01:54:45;;;;;;;54.53;31.83;;;2.40;99.90;;;;;;5100487;28;20047;-61
2021/12/06 01:57:11;;;;;;;52.47;31.50;;;2.40;99.90;;;;;;5101277;27;20040;-61
2021/12/06 01:59:37;;;;;;;55.65;32.15;;;2.40;99.90;;;;;;5103767;28;20432;-61
2021/12/06 02:02:03;;;;;;;56.25;33.05;;;2.40;99.90;;;;;;5103757;27;20060;-62
2021/12/06 02:04:30;;;;;;;51.05;31.40;;;2.30;99.90;;;;;;5100610;28;20166;-61
2021/12/06 02:06:57;;;;;;;56.17;33.50;;;2.30;99.90;;;;;;5130286;27;20470;-62
2021/12/06 02:09:26;;;;;;;51.42;30.38;;;2.30;99.90;;;;;;5101469;28;20067;-61
2021/12/06 02:11:52;;;;;;;51.90;31.70;;;2.30;99.90;;;;;;5102488;27;20055;-61
2021/12/06 02:14:29;;;;;;;59.38;32.72;;;2.30;99.90;;;;;;5101535;28;20048;-61
2021/12/06 02:17:09;;;;;;;59.22;32.10;;;2.40;99.90;;;;;;5134817;27;20115;-61
2021/12/06 02:19:39;;;;;;;57.03;31.35;;;2.30;99.90;;;;;;5134474;27;20722;-61
2021/12/06 02:22:07;;;;;;;57.22;33.38;;;2.40;99.90;;;;;;5103242;27;20044;-61
2021/12/06 02:24:33;;;;;;;51.65;30.50;;;2.60;99.90;;;;;;5103317;28;20485;-61
2021/12/06 02:27:00;;;;;;;56.22;32.60;;;2.30;99.90;;;;;;5099990;28;20044;-61
2021/12/06 02:29:26;;;;;;;54.75;31.90;;;2.40;99.90;;;;;;5105966;28;20047;-61
2021/12/06 02:31:52;;;;;;;66.53;34.97;;;2.30;99.90;;;;;;5106389;28;20043;-62
2021/12/06 02:34:18;;;;;;;57.55;32.85;;;2.30;99.90;;;;;;5105926;27;20084;-61
2021/12/06 02:36:46;;;;;;;59.58;32.60;;;2.40;99.90;;;;;;5106887;28;20044;-61
2021/12/06 02:39:20;;;;;;;57.03;31.40;;;2.40;99.90;;;;;;5108158;28;20052;-61
2021/12/06 02:41:47;;;;;;;56.05;32.08;;;2.40;99.90;;;;;;5102157;27;20044;-61
2021/12/06 02:44:14;;;;;;;51.17;31.75;;;2.40;99.90;;;;;;5122210;27;20035;-61
2021/12/06 02:46:40;;;;;;;53.05;31.90;;;2.30;99.90;;;;;;5135701;27;20126;-61
2021/12/06 02:49:06;;;;;;;51.95;30.52;;;2.40;99.90;;;;;;5104216;28;20191;-61
2021/12/06 02:51:32;;;;;;;52.50;30.70;;;2.40;99.90;;;;;;5105573;27;20126;-61
2021/12/06 02:53:58;;;;;;;48.30;29.48;;;2.50;99.90;;;;;;5136069;27;20043;-61
2021/12/06 02:58:58;;;;;;;52.50;31.40;;;2.50;99.90;;;;;;5108067;28;20108;-61
2021/12/06 03:01:27;;;;;;;56.03;33.67;;;2.40;99.90;;;;;;5136508;27;20036;-61
2021/12/06 03:03:53;;;;;;;50.35;30.83;;;2.50;99.90;;;;;;5105021;28;20039;-61
2021/12/06 03:06:18;;;;;;;50.38;31.45;;;2.50;99.90;;;;;;5106623;27;20036;-61
2021/12/06 03:08:48;;;;;;;54.03;30.98;;;2.50;99.90;;;;;;5138470;27;20146;-61
2021/12/06 03:11:23;;;;;;;50.28;29.50;;;2.40;99.90;;;;;;5138235;27;20058;-61
2021/12/06 03:13:50;;;;;;;53.50;30.52;;;2.50;99.90;;;;;;5087168;28;20134;-61
2021/12/06 03:16:16;;;;;;;51.40;31.63;;;2.50;99.90;;;;;;5105433;28;20158;-61
2021/12/06 03:18:47;;;;;;;54.00;30.88;;;2.50;99.90;;;;;;5103882;28;20123;-61
2021/12/06 03:21:14;;;;;;;59.42;32.95;;;2.50;99.90;;;;;;5107126;28;20143;-61
2021/12/06 03:23:40;;;;;;;56.72;31.10;;;2.50;99.90;;;;;;5106643;27;20040;-61
2021/12/06 03:26:06;;;;;;;56.67;32.17;;;2.50;99.90;;;;;;5106363;28;20070;-61
2021/12/06 03:28:43;;;;;;;54.63;30.60;;;2.50;99.90;;;;;;5106532;27;20850;-61
2021/12/06 03:31:09;;;;;;;64.57;34.40;;;2.50;99.90;;;;;;5105458;28;20494;-61
2021/12/06 03:33:37;;;;;;;68.60;34.65;;;2.50;99.90;;;;;;5104389;27;20124;-61
2021/12/06 03:36:07;;;;;;;63.15;34.45;;;2.50;99.90;;;;;;5136331;27;20090;-61
2021/12/06 03:38:34;;;;;;;67.25;36.15;;;2.50;99.90;;;;;;5107599;27;20039;-61
2021/12/06 03:40:59;;;;;;;66.22;35.47;;;2.50;99.90;;;;;;5135731;27;20039;-61
2021/12/06 03:43:25;;;;;;;64.85;35.85;;;2.50;99.90;;;;;;5102466;28;20083;-61
2021/12/06 03:45:51;;;;;;;65.63;35.85;;;2.50;99.90;;;;;;5104186;28;20080;-61
2021/12/06 03:48:17;;;;;;;72.32;36.03;;;2.40;99.90;;;;;;5106592;27;20046;-61
2021/12/06 03:50:43;;;;;;;76.70;37.58;;;2.40;99.90;;;;;;5137119;27;20051;-61
2021/12/06 03:53:08;;;;;;;68.07;35.45;;;2.40;99.90;;;;;;5104632;27;20524;-61
2021/12/06 03:55:34;;;;;;;69.07;35.55;;;2.50;99.90;;;;;;5105286;28;20039;-61
2021/12/06 03:58:00;;;;;;;72.07;35.38;;;2.50;99.90;;;;;;5100747;28;20035;-61
2021/12/06 04:00:26;;;;;;;69.57;36.58;;;2.50;99.90;;;;;;5103375;27;20043;-61
2021/12/06 04:02:52;;;;;;;70.60;36.17;;;2.50;99.90;;;;;;5134412;27;20047;-61
2021/12/06 04:05:18;;;;;;;68.40;35.38;;;2.60;99.90;;;;;;5106139;27;21502;-61
2021/12/06 04:07:44;;;;;;;72.93;37.83;;;2.60;99.90;;;;;;5104395;27;20035;-61
2021/12/06 04:10:10;;;;;;;73.65;37.30;;;2.50;99.90;;;;;;5102718;28;20047;-61
2021/12/06 04:12:37;;;;;;;73.97;38.40;;;2.50;99.90;;;;;;5133512;27;20047;-61
2021/12/06 04:15:07;;;;;;;80.95;37.53;;;2.50;99.90;;;;;;5131439;27;20040;-61
2021/12/06 04:17:34;;;;;;;72.35;37.90;;;2.50;99.90;;;;;;5133180;27;20050;-61
2021/12/06 04:19:59;;;;;;;78.90;36.35;;;2.50;99.90;;;;;;5103349;27;20044;-61
2021/12/06 04:22:25;;;;;;;75.80;37.03;;;2.60;99.90;;;;;;5106794;28;20039;-61
2021/12/06 04:24:51;;;;;;;76.47;38.22;;;2.50;99.90;;;;;;5105418;27;20515;-61
2021/12/06 04:27:18;;;;;;;73.60;37.88;;;2.60;99.90;;;;;;5102935;27;20074;-61
2021/12/06 04:29:48;;;;;;;85.10;39.60;;;2.50;99.90;;;;;;5121296;27;20126;-61
2021/12/06 04:32:15;;;;;;;85.93;39.45;;;2.50;99.90;;;;;;5105846;27;20071;-61
2021/12/06 04:34:40;;;;;;;77.93;38.40;;;2.60;99.90;;;;;;5100299;28;20078;-61
2021/12/06 04:37:07;;;;;;;77.97;38.65;;;2.60;99.90;;;;;;5108206;28;20130;-61
2021/12/06 04:39:33;;;;;;;75.78;39.28;;;2.50;99.90;;;;;;5104449;28;20100;-61
2021/12/06 04:41:59;;;;;;;85.80;39.45;;;2.50;99.90;;;;;;5102936;28;20040;-61
2021/12/06 04:44:25;;;;;;;89.50;40.42;;;2.50;99.90;;;;;;5102865;27;20031;-61
2021/12/06 04:46:51;;;;;;;74.85;37.28;;;2.50;99.90;;;;;;5103550;28;20127;-61
2021/12/06 04:49:17;;;;;;;86.50;41.08;;;2.50;99.90;;;;;;5104357;27;20069;-61
2021/12/06 04:51:49;;;;;;;89.78;40.30;;;2.60;99.90;;;;;;5104146;28;20703;-61
2021/12/06 04:54:17;;;;;;;84.97;40.40;;;2.50;99.90;;;;;;5103888;28;20061;-61
2021/12/06 04:56:48;;;;;;;83.00;38.90;;;2.70;99.90;;;;;;5104366;28;20074;-61
2021/12/06 04:59:19;;;;;;;78.43;38.13;;;2.60;99.90;;;;;;5104917;28;20028;-61
2021/12/06 05:01:47;;;;;;;79.47;37.72;;;2.50;99.90;;;;;;5105409;27;20036;-61
2021/12/06 05:04:20;;;;;;;72.75;37.00;;;2.50;99.90;;;;;;5105497;28;20039;-61
2021/12/06 05:06:50;;;;;;;81.13;37.30;;;2.60;99.90;;;;;;5103901;28;20486;-61
2021/12/06 05:09:30;;;;;;;68.00;33.83;;;2.60;99.90;;;;;;5103295;28;20040;-61
2021/12/06 05:11:57;;;;;;;66.38;34.85;;;2.60;99.90;;;;;;5136036;27;20058;-61
2021/12/06 05:14:24;;;;;;;70.10;35.72;;;2.70;99.90;;;;;;5101407;28;20042;-61
2021/12/06 05:16:51;;;;;;;79.05;37.67;;;2.70;99.90;;;;;;5128621;27;20047;-61
2021/12/06 05:19:17;;;;;;;67.40;35.30;;;2.80;99.90;;;;;;5097190;28;20070;-61
2021/12/06 05:21:42;;;;;;;67.97;34.90;;;2.70;99.90;;;;;;5098501;28;20032;-61
2021/12/06 05:24:08;;;;;;;74.75;37.30;;;2.70;99.90;;;;;;5095740;28;20064;-61
2021/12/06 05:26:36;;;;;;;68.90;37.63;;;2.70;99.90;;;;;;5095438;28;20035;-61
2021/12/06 05:29:03;;;;;;;73.05;33.63;;;2.70;99.90;;;;;;5130274;27;20048;-61
2021/12/06 05:31:30;;;;;;;63.38;32.70;;;2.70;99.90;;;;;;5129763;27;20040;-61
2021/12/06 05:34:01;;;;;;;66.40;34.60;;;2.60;99.90;;;;;;5098741;28;20028;-61
2021/12/06 05:36:27;;;;;;;62.38;32.75;;;2.60;99.90;;;;;;5125774;27;20119;-61
2021/12/06 05:38:54;;;;;;;74.75;35.90;;;2.70;99.90;;;;;;5096380;28;20385;-61
2021/12/06 05:41:21;;;;;;;63.47;35.58;;;2.70;99.90;;;;;;5096589;28;20115;-61
2021/12/06 05:43:47;;;;;;;73.15;35.85;;;2.60;99.90;;;;;;5098054;28;20082;-61
2021/12/06 05:46:13;;;;;;;64.00;33.67;;;2.70;99.90;;;;;;5096945;28;20063;-61
2021/12/06 05:48:40;;;;;;;72.32;36.45;;;2.70;99.90;;;;;;5100332;28;20035;-61
2021/12/06 05:51:05;;;;;;;75.57;35.45;;;2.80;99.90;;;;;;5097998;28;20093;-61
2021/12/06 05:53:31;;;;;;;65.10;34.90;;;2.80;99.90;;;;;;5098726;28;20048;-61
2021/12/06 05:55:57;;;;;;;62.22;33.22;;;2.80;99.90;;;;;;5096506;28;20098;-61
2021/12/06 05:58:28;;;;;;;62.97;33.10;;;2.80;99.90;;;;;;5132204;27;20047;-61
2021/12/06 06:00:56;;;;;;;73.03;35.72;;;2.80;99.90;;;;;;5101588;28;20063;-61
2021/12/06 06:03:21;;;;;;;70.82;34.08;;;2.80;99.90;;;;;;5096155;28;20119;-61
2021/12/06 06:05:47;;;;;;;68.95;35.55;;;2.70;99.90;;;;;;5095040;28;20123;-61
2021/12/06 06:08:13;;;;;;;69.78;35.83;;;2.70;99.90;;;;;;5097770;28;20135;-62
2021/12/06 06:10:39;;;;;;;74.35;36.88;;;2.70;99.90;;;;;;5096931;28;20146;-61
2021/12/06 06:13:06;;;;;;;63.92;33.75;;;2.70;99.90;;;;;;5098936;28;20549;-61
2021/12/06 06:15:33;;;;;;;74.38;36.17;;;2.60;99.90;;;;;;5128968;27;20086;-61
2021/12/06 06:18:02;;;;;;;73.57;35.53;;;2.60;99.90;;;;;;5099818;28;20544;-62
2021/12/06 06:20:42;;;;;;;79.47;35.80;;;2.60;99.90;;;;;;5098030;28;20039;-61
2021/12/06 06:23:08;;;;;;;71.72;35.05;;;2.60;99.90;;;;;;5131263;27;20489;-61
2021/12/06 06:25:34;;;;;;;70.78;35.38;;;2.60;99.90;;;;;;5101132;28;20535;-61
2021/12/06 06:28:01;;;;;;;85.63;38.40;;;2.60;99.90;;;;;;5101213;28;20032;-61
2021/12/06 06:30:27;;;;;;;77.82;36.83;;;2.60;99.90;;;;;;5133924;27;20040;-61
2021/12/06 06:32:52;;;;;;;73.20;36.60;;;2.60;99.90;;;;;;5100549;28;20520;-61
2021/12/06 06:35:19;;;;;;;73.85;34.80;;;2.60;99.90;;;;;;5131309;27;20085;-61
2021/12/06 06:37:46;;;;;;;75.97;35.95;;;2.60;99.90;;;;;;5080603;28;20040;-61
2021/12/06 06:40:12;;;;;;;75.05;36.38;;;2.60;99.90;;;;;;5096220;28;20115;-61
2021/12/06 06:42:39;;;;;;;75.13;35.78;;;2.60;99.90;;;;;;5104667;27;20035;-61
2021/12/06 06:45:05;;;;;;;83.85;36.95;;;2.90;99.90;;;;;;5105289;27;20039;-61
2021/12/06 06:47:31;;;;;;;81.10;38.10;;;2.70;99.90;;;;;;5107258;27;20047;-61
2021/12/06 06:49:56;;;;;;;82.38;35.83;;;2.70;99.90;;;;;;5102281;27;20054;-61
2021/12/06 06:52:22;;;;;;;83.13;37.20;;;2.70;99.90;;;;;;5136051;27;20048;-61
2021/12/06 06:54:48;;;;;;;82.97;37.90;;;2.70;99.90;;;;;;5106056;27;20045;-61
2021/12/06 06:57:14;;;;;;;86.97;38.15;;;2.70;99.90;;;;;;5137197;27;20039;-61
2021/12/06 06:59:40;;;;;;;85.50;38.90;;;2.70;99.90;;;;;;5104439;27;20122;-61
2021/12/06 07:02:06;;;;;;;93.78;38.83;;;2.70;99.90;;;;;;5104450;27;20050;-62
2021/12/06 07:04:32;;;;;;;95.53;39.63;;;2.70;99.90;;;;;;5135286;27;20048;-61
2021/12/06 07:06:57;;;;;;;92.38;39.58;;;2.70;99.90;;;;;;5106775;27;20055;-61
2021/12/06 07:09:23;;;;;;;92.47;39.15;;;2.70;99.90;;;;;;5089211;28;20040;-61
2021/12/06 07:11:50;;;;;;;87.45;39.25;;;2.70;99.90;;;;;;5105619;27;20669;-61
2021/12/06 07:14:16;;;;;;;80.10;35.78;;;2.70;99.90;;;;;;5102492;27;20044;-61
2021/12/06 07:16:44;;;;;;;78.20;37.00;;;2.80;99.90;;;;;;5101028;27;20612;-62
2021/12/06 07:19:10;;;;;;;75.15;35.50;;;2.80;99.90;;;;;;5103350;27;20032;-61
2021/12/06 07:21:36;;;;;;;81.30;37.50;;;2.80;99.90;;;;;;5101774;27;20077;-61
2021/12/06 07:24:03;;;;;;;79.63;36.95;;;2.70;99.90;;;;;;5105789;27;20070;-62
2021/12/06 07:26:30;;;;;;;83.00;37.75;;;2.70;99.90;;;;;;5101095;27;20082;-61
2021/12/06 07:28:55;;;;;;;78.95;36.67;;;2.60;99.90;;;;;;5102088;27;20517;-61
2021/12/06 07:31:22;;;;;;;86.50;38.03;;;2.70;99.90;;;;;;5102657;27;20044;-61
2021/12/06 07:33:49;;;;;;;82.75;37.50;;;2.60;99.90;;;;;;5104291;27;20127;-61
2021/12/06 07:36:16;;;;;;;85.50;38.20;;;2.70;99.90;;;;;;5088708;27;20059;-61
2021/12/06 07:38:42;;;;;;;84.22;37.53;;;2.60;99.90;;;;;;5102734;27;20035;-61
2021/12/06 07:41:12;;;;;;;78.20;38.03;;;2.60;99.90;;;;;;5101613;27;20036;-62
2021/12/06 07:43:38;;;;;;;72.13;34.22;;;2.60;99.90;;;;;;5097769;27;20543;-62
2021/12/06 07:46:05;;;;;;;70.05;34.50;;;2.60;99.90;;;;;;5104285;27;20043;-61
2021/12/06 07:48:31;;;;;;;69.53;32.90;;;2.60;99.90;;;;;;5098796;27;20566;-61
2021/12/06 07:50:59;;;;;;;73.65;34.72;;;2.80;99.90;;;;;;5101047;27;20044;-61
2021/12/06 07:53:26;;;;;;;66.18;34.22;;;2.60;99.90;;;;;;5106994;27;20444;-61
2021/12/06 07:55:52;;;;;;;59.50;32.05;;;2.70;99.90;;;;;;5102285;27;20047;-61
2021/12/06 07:58:17;;;;;;;67.38;32.95;;;2.70;99.90;;;;;;5104180;27;20092;-61
2021/12/06 08:00:46;;;;;;;69.07;33.30;;;2.90;99.90;;;;;;5128709;27;20047;-61
2021/12/06 08:03:14;;;;;;;67.90;32.00;;;2.80;99.90;;;;;;5099523;27;20052;-61
2021/12/06 08:05:43;;;;;;;61.88;31.05;;;2.70;99.90;;;;;;5102949;27;20122;-61
2021/12/06 08:08:18;;;;;;;58.28;29.92;;;2.70;99.90;;;;;;5095386;27;20067;-61
2021/12/06 08:10:47;;;;;;;59.37;30.23;;;2.60;99.90;;;;;;5091803;27;20505;-61
2021/12/06 08:13:15;;;;;;;59.72;30.17;;;2.60;99.90;;;;;;5091418;28;20036;-61
2021/12/06 08:15:43;;;;;;;59.83;30.73;;;2.50;99.90;;;;;;5094150;28;21094;-61
2021/12/06 08:18:08;;;;;;;64.80;29.98;;;2.40;99.90;;;;;;5093042;28;20051;-61
2021/12/06 08:20:35;;;;;;;63.25;29.85;;;2.40;99.90;;;;;;5094064;27;20036;-61
2021/12/06 08:23:01;;;;;;;61.92;30.65;;;2.40;99.90;;;;;;5090478;28;20406;-61
2021/12/06 08:25:27;;;;;;;64.07;31.40;;;2.50;99.90;;;;;;5125372;27;20456;-61
2021/12/06 08:27:53;;;;;;;69.63;31.17;;;2.50;99.90;;;;;;5093354;28;20040;-61
2021/12/06 08:30:22;;;;;;;64.22;30.65;;;2.50;99.90;;;;;;5126828;27;20039;-61
2021/12/06 08:32:53;;;;;;;67.38;31.10;;;2.50;99.90;;;;;;5092991;28;20048;-61
2021/12/06 08:35:19;;;;;;;56.63;28.83;;;2.50;99.90;;;;;;5093479;28;20084;-61
2021/12/06 08:37:46;;;;;;;60.30;30.27;;;2.50;99.90;;;;;;5092820;28;20616;-61
2021/12/06 08:40:12;;;;;;;59.85;29.20;;;2.50;99.90;;;;;;5093865;28;20063;-61
2021/12/06 08:42:38;;;;;;;63.17;30.42;;;2.50;99.90;;;;;;5089540;28;20040;-61
2021/12/06 08:45:05;;;;;;;59.45;29.50;;;2.50;99.90;;;;;;5094492;28;20039;-61
2021/12/06 08:47:31;;;;;;;62.90;30.85;;;2.50;99.90;;;;;;5092826;28;20044;-61
2021/12/06 08:49:56;;;;;;;65.75;29.92;;;2.40;99.90;;;;;;5091810;28;20040;-61
2021/12/06 08:52:23;;;;;;;62.15;28.45;;;2.40;99.90;;;;;;5091886;28;20048;-61
2021/12/06 08:54:48;;;;;;;58.78;29.60;;;2.50;99.90;;;;;;5092335;28;20040;-61
2021/12/06 08:57:14;;;;;;;57.08;28.02;;;2.50;99.90;;;;;;5092473;28;20062;-61
2021/12/06 08:59:40;;;;;;;50.95;28.60;;;2.60;99.90;;;;;;5096398;28;20035;-61
2021/12/06 09:02:06;;;;;;;55.65;26.83;;;2.60;99.90;;;;;;5092506;28;20387;-61
2021/12/06 09:04:37;;;;;;;57.35;29.40;;;2.60;99.90;;;;;;5095182;28;20099;-61
2021/12/06 09:07:10;;;;;;;53.80;29.00;;;2.60;99.90;;;;;;5094434;28;20620;-61
2021/12/06 09:09:36;;;;;;;53.78;28.85;;;2.60;99.90;;;;;;5093861;28;20171;-61
2021/12/06 09:12:02;;;;;;;66.97;34.42;;;2.60;99.90;;;;;;5090424;28;20131;-61
2021/12/06 09:14:28;;;;;;;64.60;35.80;;;2.60;99.90;;;;;;5093417;28;20032;-61
2021/12/06 09:16:55;;;;;;;69.35;37.13;;;2.60;99.90;;;;;;5093437;28;20044;-61
2021/12/06 09:19:21;;;;;;;66.88;37.60;;;2.60;99.90;;;;;;5092673;28;20031;-61
2021/12/06 09:21:47;;;;;;;72.22;39.47;;;2.60;99.90;;;;;;5091808;28;20119;-61
2021/12/06 09:24:17;;;;;;;83.45;44.35;;;2.70;99.90;;;;;;5078303;28;20063;-61
2021/12/06 09:26:44;;;;;;;80.50;43.80;;;2.70;99.90;;;;;;5123378;27;20059;-61
2021/12/06 09:29:11;;;;;;;82.57;44.85;;;2.70;99.90;;;;;;5093735;28;20092;-61
2021/12/06 09:31:37;;;;;;;82.80;45.10;;;2.70;99.90;;;;;;5091066;28;20040;-60
2021/12/06 09:34:03;;;;;;;77.72;42.38;;;2.80;99.90;;;;;;5124250;27;20055;-61
2021/12/06 09:36:29;;;;;;;67.40;38.75;;;2.80;99.90;;;;;;5094246;28;20120;-61
2021/12/06 09:38:55;;;;;;;65.07;36.92;;;2.80;99.90;;;;;;5122447;27;20490;-61
2021/12/06 09:41:26;;;;;;;65.55;37.88;;;2.80;99.90;;;;;;5092501;28;20028;-61
2021/12/06 09:43:55;;;;;;;60.65;34.85;;;2.90;99.90;;;;;;5094606;28;20032;-61
2021/12/06 09:46:21;;;;;;;62.75;35.63;;;2.80;99.90;;;;;;5127837;27;20036;-61
2021/12/06 09:48:48;;;;;;;65.40;35.13;;;2.80;99.90;;;;;;5091248;28;20046;-61
2021/12/06 09:51:26;;;;;;;61.55;32.25;;;2.80;99.90;;;;;;5093850;28;20527;-61
2021/12/06 09:53:54;;;;;;;56.88;31.58;;;2.90;99.90;;;;;;5108803;28;20044;-61
2021/12/06 09:56:30;;;;;;;52.60;29.52;;;2.90;99.90;;;;;;5097655;28;20542;-61
2021/12/06 09:58:58;;;;;;;51.67;27.30;;;2.80;99.90;;;;;;5090180;28;20056;-61
2021/12/06 10:01:32;;;;;;;42.42;26.40;;;2.90;99.90;;;;;;5095939;28;20035;-61
2021/12/06 10:03:58;;;;;;;45.35;24.63;;;2.90;99.90;;;;;;5128553;27;20051;-61
2021/12/06 10:06:26;;;;;;;45.95;24.10;;;2.90;99.90;;;;;;5128364;27;20040;-61
2021/12/06 10:08:54;;;;;;;45.03;24.30;;;2.90;99.90;;;;;;5128688;27;20055;-61
2021/12/06 10:11:22;;;;;;;38.15;23.60;;;2.90;99.90;;;;;;5096867;28;20122;-61
2021/12/06 10:13:48;;;;;;;41.38;24.30;;;2.90;99.90;;;;;;5095881;28;20035;-61
2021/12/06 10:16:14;;;;;;;37.20;23.98;;;3.00;99.90;;;;;;5094709;28;20070;-61
2021/12/06 10:18:40;;;;;;;40.72;23.63;;;3.00;99.90;;;;;;5112750;27;20409;-60
2021/12/06 10:21:06;;;;;;;40.80;25.17;;;3.00;99.90;;;;;;5091583;28;20085;-61
2021/12/06 10:23:36;;;;;;;40.05;24.73;;;3.10;99.90;;;;;;5094851;28;20040;-61
2021/12/06 10:26:06;;;;;;;48.45;26.60;;;3.10;99.90;;;;;;5097444;27;20075;-61
2021/12/06 10:28:33;;;;;;;43.15;24.25;;;3.10;99.90;;;;;;5094020;27;20036;-61
2021/12/06 10:31:03;;;;;;;37.85;23.67;;;3.10;99.90;;;;;;5093313;27;20517;-61
2021/12/06 10:33:36;;;;;;;42.25;24.30;;;3.10;99.90;;;;;;5096665;28;20100;-61
2021/12/06 10:36:17;;;;;;;41.55;24.25;;;3.10;99.90;;;;;;5096962;28;20052;-61
2021/12/06 10:38:58;;;;;;;42.75;25.27;;;3.10;99.90;;;;;;5098546;28;20513;-61
2021/12/06 10:41:26;;;;;;;41.25;24.52;;;3.10;99.90;;;;;;5097279;28;20040;-61
2021/12/06 10:43:53;;;;;;;40.38;24.98;;;3.10;99.90;;;;;;5098396;28;20040;-61
2021/12/06 10:46:20;;;;;;;48.72;23.95;;;3.10;99.90;;;;;;5116437;27;20084;-61
2021/12/06 10:48:47;;;;;;;40.85;23.15;;;3.10;99.90;;;;;;5099560;28;20047;-61
2021/12/06 10:51:16;;;;;;;32.53;21.70;;;3.20;99.90;;;;;;5097896;27;20058;-61
2021/12/06 10:53:49;;;;;;;33.33;20.02;;;3.20;99.90;;;;;;5099292;28;20052;-61
2021/12/06 10:56:22;;;;;;;32.13;18.85;;;3.10;99.90;;;;;;5099563;27;20049;-61
2021/12/06 10:58:51;;;;;;;29.50;19.38;;;3.10;99.90;;;;;;5130121;27;20078;-61
2021/12/06 11:01:26;;;;;;;32.92;19.23;;;3.10;99.90;;;;;;5102080;28;20423;-61
2021/12/06 11:03:54;;;;;;;33.33;19.50;;;3.10;99.90;;;;;;5099855;27;20908;-61
2021/12/06 11:06:35;;;;;;;32.17;19.98;;;3.00;99.90;;;;;;5095879;27;20468;-61
2021/12/06 11:09:04;;;;;;;28.75;18.88;;;3.10;99.90;;;;;;5096802;28;20036;-61
2021/12/06 11:11:52;;;;;;;30.70;18.80;;;3.10;99.90;;;;;;5098462;27;21726;-61
2021/12/06 11:14:25;;;;;;;32.70;21.98;;;3.10;99.90;;;;;;5130528;27;20047;-62
2021/12/06 11:16:57;;;;;;;32.20;20.35;;;3.10;99.90;;;;;;5099463;28;20044;-61
2021/12/06 11:19:26;;;;;;;40.38;21.90;;;3.10;99.90;;;;;;5084054;28;20090;-61
2021/12/06 11:21:54;;;;;;;40.85;22.52;;;3.20;99.90;;;;;;5096224;28;20051;-61
2021/12/06 11:24:41;;;;;;;36.10;22.05;;;3.10;99.90;;;;;;5097015;28;20039;-61
2021/12/06 11:27:17;;;;;;;38.65;21.55;;;3.10;99.90;;;;;;5096289;28;20092;-61
2021/12/06 11:29:44;;;;;;;36.72;22.40;;;3.20;99.90;;;;;;5129167;27;20106;-61
2021/12/06 11:32:17;;;;;;;43.05;22.55;;;3.20;99.90;;;;;;5098377;28;20036;-61
2021/12/06 11:34:55;;;;;;;38.50;22.45;;;3.20;99.90;;;;;;5136147;27;20050;-62
2021/12/06 11:37:25;;;;;;;36.65;21.50;;;3.20;99.90;;;;;;5099391;28;20611;-61
2021/12/06 11:40:03;;;;;;;43.25;23.42;;;3.20;99.90;;;;;;5132002;27;20123;-61
2021/12/06 11:42:30;;;;;;;40.88;22.20;;;3.20;99.90;;;;;;5097716;28;20032;-61
2021/12/06 11:44:55;;;;;;;39.10;20.75;;;3.30;99.90;;;;;;5096836;27;20028;-61
2021/12/06 11:47:21;;;;;;;39.58;22.52;;;3.20;99.90;;;;;;5115944;27;20108;-61
2021/12/06 11:49:51;;;;;;;40.88;22.75;;;3.30;99.90;;;;;;5116194;27;20054;-61
2021/12/06 11:52:21;;;;;;;31.52;19.55;;;3.40;99.90;;;;;;5098330;28;20048;-61
2021/12/06 11:54:54;;;;;;;32.28;20.33;;;3.30;99.90;;;;;;5097317;28;20078;-61
2021/12/06 11:57:27;;;;;;;33.22;19.17;;;3.30;99.90;;;;;;5115075;27;20550;-61
2021/12/06 11:59:58;;;;;;;33.40;18.98;;;3.40;99.90;;;;;;5129116;27;20047;-61
2021/12/06 12:02:44;;;;;;;32.42;19.50;;;3.40;99.90;;;;;;5094478;28;20046;-61
2021/12/06 12:05:26;;;;;;;37.28;20.80;;;3.40;99.90;;;;;;5129141;27;20573;-61
2021/12/06 12:08:07;;;;;;;33.47;19.95;;;3.30;99.90;;;;;;5082883;28;20501;-61
2021/12/06 12:10:42;;;;;;;34.33;20.77;;;3.30;99.90;;;;;;5099146;28;20043;-61
2021/12/06 12:13:11;;;;;;;36.90;21.87;;;3.30;99.90;;;;;;5096764;28;20791;-61
2021/12/06 12:15:37;;;;;;;35.88;20.80;;;3.30;99.90;;;;;;5098686;28;20470;-61
2021/12/06 12:18:04;;;;;;;38.40;22.10;;;3.30;99.90;;;;;;5096009;28;20092;-61
2021/12/06 12:20:30;;;;;;;42.17;23.52;;;3.40;99.90;;;;;;5102948;28;20032;-61
2021/12/06 12:23:02;;;;;;;40.30;22.23;;;3.40;99.90;;;;;;5134306;27;20505;-61
2021/12/06 12:25:33;;;;;;;45.03;25.30;;;3.40;99.90;;;;;;5106192;28;20036;-61
2021/12/06 12:28:18;;;;;;;50.55;26.80;;;3.40;99.90;;;;;;5099928;28;20516;-61
2021/12/06 12:30:46;;;;;;;51.50;26.75;;;3.40;99.90;;;;;;5100169;27;20036;-61
2021/12/06 12:33:12;;;;;;;51.88;27.45;;;3.40;99.90;;;;;;5101743;28;20078;-61
2021/12/06 12:35:41;;;;;;;53.10;27.63;;;3.40;99.90;;;;;;5103241;27;20051;-61
2021/12/06 12:38:09;;;;;;;48.33;27.60;;;3.30;99.90;;;;;;5100318;28;20122;-61
2021/12/06 12:40:56;;;;;;;51.47;27.90;;;3.40;99.90;;;;;;5099506;27;20436;-61
2021/12/06 12:43:38;;;;;;;53.55;29.50;;;3.40;99.90;;;;;;5131411;27;20039;-62
2021/12/06 12:46:08;;;;;;;55.53;28.55;;;3.30;99.90;;;;;;5131216;27;20146;-61
2021/12/06 12:48:57;;;;;;;55.50;28.45;;;3.30;99.90;;;;;;5096938;28;20042;-61
2021/12/06 12:51:49;;;;;;;51.92;28.35;;;3.30;99.90;;;;;;5130552;27;20051;-61